Time;durP1;ratioP1;P1;durP2;ratioP2;P2;SDS_P1;SDS_P2;PMS_P1;PMS_P2;Temp;Humidity;BMP_temperature;BMP_pressure;BME280_temperature;BME280_humidity;BME280_pressure;Samples;Min_cycle;Max_cycle;Signal;HPM_P1;HPM_P2
2024/03/25 00:02:05;;;;;;;0.95;0.85;;;;;;;6.00;100.00;99226.00;4841176;29;20192;-68
2024/03/25 00:04:31;;;;;;;1.00;0.80;;;;;;;5.99;100.00;99230.53;4845711;29;20294;-71
2024/03/25 00:06:59;;;;;;;0.80;0.50;;;;;;;6.02;100.00;99223.91;4843924;29;20191;-70
2024/03/25 00:09:26;;;;;;;3.28;0.70;;;;;;;6.03;100.00;99231.75;4844083;29;20241;-69
2024/03/25 00:11:56;;;;;;;1.75;1.25;;;;;;;5.93;100.00;99227.88;4851167;29;20191;-70
2024/03/25 00:14:23;;;;;;;1.00;0.70;;;;;;;6.03;100.00;99229.06;4858164;29;20228;-68
2024/03/25 00:16:51;;;;;;;1.98;1.40;;;;;;;6.01;100.00;99233.81;4818090;29;1215475;-67
2024/03/25 00:19:18;;;;;;;1.23;1.13;;;;;;;5.81;100.00;99232.25;4849853;29;20222;-69
2024/03/25 00:21:46;;;;;;;1.98;0.82;;;;;;;5.87;100.00;99226.03;4841950;29;20184;-69
2024/03/25 00:24:13;;;;;;;1.20;0.73;;;;;;;5.88;100.00;99233.06;4860091;29;20280;-69
2024/03/25 00:26:41;;;;;;;1.70;1.35;;;;;;;5.96;100.00;99238.19;4855574;29;20669;-69
2024/03/25 00:29:09;;;;;;;1.20;0.85;;;;;;;6.01;100.00;99239.19;4847510;29;20195;-70
2024/03/25 00:31:37;;;;;;;0.90;0.63;;;;;;;5.88;100.00;99243.78;4864576;29;20201;-70
2024/03/25 00:34:04;;;;;;;1.00;0.90;;;;;;;5.90;100.00;99247.09;4862700;29;20236;-67
2024/03/25 00:36:32;;;;;;;1.20;0.80;;;;;;;5.84;100.00;99245.22;4854140;29;20214;-68
2024/03/25 00:38:59;;;;;;;1.63;0.95;;;;;;;5.91;100.00;99248.72;4846950;29;20672;-70
2024/03/25 00:41:27;;;;;;;1.75;1.02;;;;;;;5.97;100.00;99251.41;4865676;29;20199;-70
2024/03/25 00:43:54;;;;;;;1.33;1.10;;;;;;;5.94;100.00;99249.16;4847405;29;20293;-68
2024/03/25 00:46:23;;;;;;;1.00;0.60;;;;;;;5.90;100.00;99255.97;4865501;29;20211;-69
2024/03/25 00:48:50;;;;;;;0.80;0.50;;;;;;;5.91;100.00;99251.41;4862520;29;20192;-69
2024/03/25 00:51:18;;;;;;;3.10;2.38;;;;;;;6.02;100.00;99256.13;4846876;29;20227;-69
2024/03/25 00:53:44;;;;;;;1.65;1.08;;;;;;;6.02;100.00;99256.97;4860146;29;20204;-70
2024/03/25 00:56:12;;;;;;;1.10;0.80;;;;;;;6.02;100.00;99256.13;4860672;29;20207;-70
2024/03/25 00:58:39;;;;;;;1.80;1.70;;;;;;;6.06;100.00;99257.34;4864606;29;20669;-69
2024/03/25 01:01:07;;;;;;;0.80;0.50;;;;;;;6.05;100.00;99258.41;4848368;29;20243;-71
2024/03/25 01:03:35;;;;;;;2.95;1.20;;;;;;;6.06;100.00;99257.34;4862012;29;20191;-67
2024/03/25 01:06:04;;;;;;;1.58;0.70;;;;;;;6.00;100.00;99260.91;4864878;29;20187;-69
2024/03/25 01:08:31;;;;;;;1.80;0.52;;;;;;;5.97;100.00;99267.50;4845569;29;20195;-70
2024/03/25 01:10:59;;;;;;;2.53;1.55;;;;;;;6.01;100.00;99265.22;4846867;29;20243;-70
2024/03/25 01:13:26;;;;;;;2.42;1.30;;;;;;;6.01;100.00;99266.03;4847628;29;20200;-71
2024/03/25 01:15:54;;;;;;;1.67;0.93;;;;;;;6.06;100.00;99262.72;4850151;29;20308;-70
2024/03/25 01:18:21;;;;;;;2.72;2.08;;;;;;;6.00;100.00;99261.69;4861779;29;20188;-69
2024/03/25 01:20:50;;;;;;;2.25;2.05;;;;;;;5.98;100.00;99260.28;4851335;29;20302;-68
2024/03/25 01:23:17;;;;;;;1.58;1.42;;;;;;;6.02;100.00;99267.69;4853934;29;20663;-69
2024/03/25 01:25:45;;;;;;;1.75;1.27;;;;;;;6.08;100.00;99276.78;4861692;29;20195;-69
2024/03/25 01:28:12;;;;;;;1.90;1.15;;;;;;;6.09;100.00;99273.88;4848182;29;20286;-69
2024/03/25 01:30:40;;;;;;;3.08;1.35;;;;;;;6.01;100.00;99274.09;4860561;29;20216;-70
2024/03/25 01:33:07;;;;;;;4.72;1.65;;;;;;;6.09;100.00;99273.88;4850444;29;20195;-70
2024/03/25 01:35:35;;;;;;;1.35;0.88;;;;;;;6.15;100.00;99276.75;4846535;29;20711;-68
2024/03/25 01:38:03;;;;;;;3.08;0.65;;;;;;;6.24;100.00;99278.97;4866587;29;20210;-68
2024/03/25 01:40:31;;;;;;;1.60;1.50;;;;;;;6.10;100.00;99274.69;4849785;29;20216;-69
2024/03/25 01:42:59;;;;;;;1.70;1.48;;;;;;;6.09;100.00;99281.09;4837247;29;20594;-70
2024/03/25 01:45:29;;;;;;;2.05;1.40;;;;;;;6.04;100.00;99287.13;4871349;29;20220;-68
2024/03/25 01:47:57;;;;;;;3.10;1.55;;;;;;;6.02;100.00;99282.97;4866357;29;20191;-70
2024/03/25 01:50:27;;;;;;;3.17;1.75;;;;;;;5.99;100.00;99286.09;4843323;29;20587;-69
2024/03/25 01:52:54;;;;;;;1.67;0.75;;;;;;;6.01;100.00;99284.00;4850107;29;20583;-71
2024/03/25 01:55:28;;;;;;;1.33;1.08;;;;;;;6.06;100.00;99289.56;4847058;29;20207;-69
2024/03/25 01:57:55;;;;;;;1.85;1.23;;;;;;;6.10;100.00;99297.00;4844841;29;20503;-69
2024/03/25 02:00:25;;;;;;;3.05;1.15;;;;;;;6.09;100.00;99294.53;4859450;29;20227;-69
2024/03/25 02:02:52;;;;;;;1.10;0.93;;;;;;;6.10;100.00;99298.84;4836363;29;20573;-70
2024/03/25 02:05:21;;;;;;;2.47;0.90;;;;;;;5.91;100.00;99305.94;4847575;29;20556;-71
2024/03/25 02:07:49;;;;;;;1.35;1.10;;;;;;;5.88;100.00;99302.84;4862303;29;20203;-70
2024/03/25 02:10:17;;;;;;;4.47;1.55;;;;;;;5.84;100.00;99304.28;4846273;29;20221;-69
2024/03/25 02:12:47;;;;;;;1.00;0.90;;;;;;;5.91;100.00;99308.63;4859081;29;20747;-68
2024/03/25 02:15:15;;;;;;;0.80;0.60;;;;;;;5.88;100.00;99316.28;4834605;29;20227;-70
2024/03/25 02:17:42;;;;;;;0.80;0.50;;;;;;;5.78;100.00;99313.16;4853411;29;20195;-69
2024/03/25 02:20:15;;;;;;;2.78;0.82;;;;;;;5.60;100.00;99317.31;4862511;29;20215;-68
2024/03/25 02:22:42;;;;;;;2.00;0.77;;;;;;;5.59;100.00;99317.53;4841225;29;20272;-68
2024/03/25 02:25:11;;;;;;;2.35;0.82;;;;;;;5.54;100.00;99318.16;4840325;29;20196;-69
2024/03/25 02:27:39;;;;;;;0.95;0.60;;;;;;;5.38;100.00;99323.94;4852578;29;20200;-69
2024/03/25 02:30:09;;;;;;;1.50;0.68;;;;;;;5.37;100.00;99322.31;4836911;29;20719;-68
2024/03/25 02:32:36;;;;;;;0.90;0.70;;;;;;;5.49;100.00;99330.53;4848095;29;20210;-67
2024/03/25 02:35:06;;;;;;;1.40;0.60;;;;;;;5.54;100.00;99333.41;4856578;29;20210;-67
2024/03/25 02:37:33;;;;;;;2.25;0.80;;;;;;;5.30;100.00;99342.09;4846828;29;20191;-67
2024/03/25 02:40:05;;;;;;;0.80;0.50;;;;;;;5.17;100.00;99346.44;4841794;29;20218;-66
2024/03/25 02:42:33;;;;;;;0.80;0.50;;;;;;;5.14;100.00;99349.50;4860287;29;20199;-68
2024/03/25 02:45:02;;;;;;;0.80;0.60;;;;;;;5.06;100.00;99343.53;4848233;29;20196;-67
2024/03/25 02:47:29;;;;;;;2.55;0.82;;;;;;;5.16;100.00;99346.63;4846120;29;20191;-68
2024/03/25 02:49:57;;;;;;;0.80;0.50;;;;;;;5.13;100.00;99352.41;4860527;29;20215;-68
2024/03/25 02:52:24;;;;;;;1.00;0.60;;;;;;;5.04;100.00;99353.59;4861226;29;20251;-68
2024/03/25 02:54:54;;;;;;;0.80;0.50;;;;;;;5.07;100.00;99350.53;4843013;29;20211;-67
2024/03/25 02:57:20;;;;;;;0.90;0.60;;;;;;;5.09;100.00;99361.88;4863997;29;20271;-69
2024/03/25 02:59:48;;;;;;;0.80;0.50;;;;;;;4.98;100.00;99359.81;4840183;29;20676;-69
2024/03/25 03:02:16;;;;;;;1.40;1.30;;;;;;;4.94;100.00;99370.09;4843651;29;20243;-69
2024/03/25 03:04:44;;;;;;;0.80;0.50;;;;;;;5.21;100.00;99366.44;4847920;29;20295;-68
2024/03/25 03:07:11;;;;;;;1.15;1.05;;;;;;;5.22;100.00;99373.47;4851199;29;20290;-69
2024/03/25 03:09:39;;;;;;;0.90;0.60;;;;;;;5.13;100.00;99373.88;4861589;29;20267;-69
2024/03/25 03:12:06;;;;;;;1.65;0.70;;;;;;;5.19;100.00;99378.38;4838301;29;20205;-70
2024/03/25 03:14:34;;;;;;;0.80;0.50;;;;;;;5.29;100.00;99378.81;4843032;29;20199;-68
2024/03/25 03:17:04;;;;;;;1.15;0.60;;;;;;;5.33;100.00;99376.53;4861864;29;20366;-68
2024/03/25 03:19:34;;;;;;;1.33;0.85;;;;;;;5.41;100.00;99385.22;4843902;29;20226;-67
2024/03/25 03:22:02;;;;;;;0.80;0.60;;;;;;;5.47;100.00;99391.63;4858853;29;20205;-67
2024/03/25 03:24:30;;;;;;;1.17;0.70;;;;;;;5.41;100.00;99389.78;4845087;29;20707;-69
2024/03/25 03:26:57;;;;;;;1.00;0.90;;;;;;;5.44;100.00;99384.81;4862146;29;20195;-69
2024/03/25 03:29:37;;;;;;;0.90;0.70;;;;;;;5.50;100.00;99396.59;4860833;29;20276;-68
2024/03/25 03:32:04;;;;;;;3.90;1.52;;;;;;;5.59;100.00;99396.16;4843848;29;20199;-68
2024/03/25 03:34:33;;;;;;;2.55;1.80;;;;;;;5.51;100.00;99404.44;4865089;29;20191;-68
2024/03/25 03:37:00;;;;;;;2.95;1.52;;;;;;;5.54;100.00;99404.00;4862592;29;20578;-69
2024/03/25 03:39:28;;;;;;;2.20;1.77;;;;;;;5.63;100.00;99408.13;4853737;29;20215;-69
2024/03/25 03:41:54;;;;;;;1.50;1.02;;;;;;;5.56;100.00;99412.69;4844512;29;20188;-69
2024/03/25 03:44:22;;;;;;;1.00;0.77;;;;;;;5.56;100.00;99412.69;4845126;29;20199;-70
2024/03/25 03:46:49;;;;;;;2.00;0.70;;;;;;;5.51;100.00;99419.69;4852091;29;20248;-67
2024/03/25 03:49:17;;;;;;;2.25;1.33;;;;;;;5.58;100.00;99421.34;4835249;29;20695;-68
2024/03/25 03:51:45;;;;;;;1.70;1.33;;;;;;;5.60;100.00;99424.66;4857725;29;20743;-68
2024/03/25 03:54:13;;;;;;;1.30;0.82;;;;;;;5.55;100.00;99429.81;4843698;29;20278;-68
2024/03/25 03:56:40;;;;;;;2.55;1.92;;;;;;;5.61;100.00;99431.69;4844028;29;20580;-69
2024/03/25 03:59:08;;;;;;;1.75;1.42;;;;;;;5.49;100.00;99432.47;4857527;29;20196;-69
2024/03/25 04:01:34;;;;;;;1.23;0.75;;;;;;;5.55;100.00;99427.13;4858750;29;20198;-69
2024/03/25 04:04:02;;;;;;;0.80;0.70;;;;;;;5.61;100.00;99436.22;4851959;29;20742;-68
2024/03/25 04:06:29;;;;;;;1.02;0.93;;;;;;;5.55;100.00;99437.88;4855656;29;20195;-69
2024/03/25 04:08:58;;;;;;;4.68;1.13;;;;;;;5.58;100.00;99442.81;4843527;29;20202;-68
2024/03/25 04:11:24;;;;;;;1.20;0.80;;;;;;;5.62;100.00;99444.06;4860722;29;20187;-69
2024/03/25 04:13:52;;;;;;;1.33;1.23;;;;;;;5.58;100.00;99450.03;4843046;29;20649;-69
2024/03/25 04:16:19;;;;;;;0.95;0.85;;;;;;;5.60;100.00;99447.97;4850892;29;20214;-69
2024/03/25 04:18:49;;;;;;;2.97;1.50;;;;;;;5.49;100.00;99441.38;4860524;29;20204;-68
2024/03/25 04:21:15;;;;;;;2.17;0.60;;;;;;;5.40;100.00;99456.00;4849001;29;20215;-69
2024/03/25 04:23:44;;;;;;;0.80;0.50;;;;;;;5.39;100.00;99462.41;4859403;29;20202;-69
2024/03/25 04:26:13;;;;;;;3.65;1.58;;;;;;;5.49;100.00;99465.50;4857060;29;20622;-68
2024/03/25 04:28:41;;;;;;;0.90;0.70;;;;;;;5.52;100.00;99470.47;4858572;29;20278;-69
2024/03/25 04:31:08;;;;;;;1.00;0.60;;;;;;;5.51;100.00;99471.50;4855962;29;20226;-71
2024/03/25 04:33:36;;;;;;;0.80;0.50;;;;;;;5.62;100.00;99480.78;4844616;29;20188;-68
2024/03/25 04:36:03;;;;;;;1.13;0.93;;;;;;;5.58;100.00;99477.69;4859076;29;20211;-67
